Terminal Aerodrome Forecast
Issued by NWS Wakefield, VA

Home | Current Version | Previous Version | Text Only | Print | Product List | Glossary On
Versions: 1 2 3 4 5 6 7 8 9 10 11 12 13
000
FTUS41 KAKQ 142326
TAFECG
TAF
KECG 142326Z 1500/1524 04008KT P6SM SCT250
     FM151300 06006KT P6SM BKN090
     FM151600 10006KT P6SM BKN100
     FM152000 25007KT P6SM OVC150=

USA.gov is the U.S. government's official web portal to all federal, state and local government web resources and services.